Aviation Digital Data Service (ADDS)

Output produced by METARs form (1508 UTC 23 September 2020)
found at http://aviationweather.gov/metar/data/
 
KMCB 231123Z 2312/2412 11007KT P6SM BKN008 
     FM231500 12009KT P6SM VCSH BKN010 
     FM232100 12009KT 5SM -SHRA BR VCTS BKN020CB 
     FM240000 11007KT 5SM SHRA BR OVC010 
     FM240400 14010KT 3SM SHRA BR OVC003